Time;durP1;ratioP1;P1;durP2;ratioP2;P2;SDS_P1;SDS_P2;PMS_P1;PMS_P2;Temp;Humidity;BMP_temperature;BMP_pressure;BME280_temperature;BME280_humidity;BME280_pressure;Samples;Min_cycle;Max_cycle;Signal;HPM_P1;HPM_P2
2022/11/15 00:06:38;;;;;;;0.88;0.50;;;;;;;;;;21007014;28;20436;-67
2022/11/15 00:16:40;;;;;;;0.80;0.40;;;;;;;;;;21006170;28;20102;-65
2022/11/15 00:26:42;;;;;;;0.75;0.45;;;;;;;;;;21005163;28;20051;-68
2022/11/15 00:36:44;;;;;;;0.52;0.40;;;;;;;;;;21004333;28;20091;-67
2022/11/15 00:46:46;;;;;;;2.85;0.60;;;;;;;;;;21002631;28;20051;-67
2022/11/15 00:56:48;;;;;;;1.48;0.40;;;;;;;;;;21002314;28;20052;-67
2022/11/15 01:06:50;;;;;;;0.63;0.30;;;;;;;;;;21002526;28;20048;-68
2022/11/15 01:16:52;;;;;;;2.08;0.50;;;;;;;;;;21000920;28;20052;-64
2022/11/15 01:26:54;;;;;;;1.83;0.70;;;;;;;;;;21000718;28;20044;-68
2022/11/15 01:36:56;;;;;;;6.10;0.80;;;;;;;;;;20999234;28;20045;-64
2022/11/15 01:46:59;;;;;;;2.00;0.50;;;;;;;;;;20998272;28;20076;-68
2022/11/15 01:57:07;;;;;;;1.25;0.90;;;;;;;;;;20996401;28;20053;-67
2022/11/15 02:07:11;;;;;;;1.42;0.57;;;;;;;;;;20997038;28;20071;-68
2022/11/15 02:17:22;;;;;;;0.43;0.40;;;;;;;;;;20996703;28;20056;-68
2022/11/15 02:27:24;;;;;;;1.10;0.32;;;;;;;;;;20996764;28;20056;-67
2022/11/15 02:37:35;;;;;;;1.15;0.68;;;;;;;;;;20995735;28;20474;-67
2022/11/15 02:47:43;;;;;;;0.40;0.30;;;;;;;;;;20995924;28;20401;-67
2022/11/15 02:57:54;;;;;;;1.10;0.47;;;;;;;;;;20995585;28;20052;-66
2022/11/15 03:07:59;;;;;;;0.80;0.50;;;;;;;;;;20999618;28;20181;-67
2022/11/15 03:18:26;;;;;;;1.13;0.40;;;;;;;;;;21010236;28;20439;-67
2022/11/15 03:28:34;;;;;;;1.42;0.40;;;;;;;;;;20918077;28;20165;-67
2022/11/15 03:38:38;;;;;;;1.65;0.30;;;;;;;;;;20917353;28;20080;-68
2022/11/15 03:48:44;;;;;;;0.63;0.30;;;;;;;;;;20916428;28;20057;-67
2022/11/15 03:58:46;;;;;;;0.40;0.30;;;;;;;;;;20935399;28;19936;-67
2022/11/15 04:08:48;;;;;;;1.27;0.60;;;;;;;;;;21006115;28;20443;-65
2022/11/15 04:24:11;;;;;;;0.47;0.30;;;;;;;;;;21005853;28;20048;-68
2022/11/15 04:39:36;;;;;;;1.20;0.60;;;;;;;;;;21004348;28;20052;-67
2022/11/15 04:49:47;;;;;;;1.17;0.68;;;;;;;;;;21003154;28;20068;-67
2022/11/15 04:59:49;;;;;;;0.90;0.40;;;;;;;;;;21003534;28;20469;-67
2022/11/15 05:09:51;;;;;;;0.60;0.40;;;;;;;;;;21002211;28;20464;-64
2022/11/15 05:19:53;;;;;;;0.68;0.43;;;;;;;;;;21000867;28;20084;-63
2022/11/15 05:29:55;;;;;;;1.52;0.65;;;;;;;;;;20999175;28;20076;-63
2022/11/15 05:39:56;;;;;;;1.70;0.80;;;;;;;;;;21000010;28;20049;-68
2022/11/15 05:49:58;;;;;;;1.40;0.93;;;;;;;;;;20999442;28;20075;-64
2022/11/15 06:00:01;;;;;;;1.88;1.27;;;;;;;;;;20997773;28;20072;-66
2022/11/15 06:10:03;;;;;;;1.10;0.80;;;;;;;;;;20996715;28;20044;-67
2022/11/15 06:20:05;;;;;;;1.20;0.82;;;;;;;;;;20997553;28;20408;-65
2022/11/15 06:30:07;;;;;;;1.05;0.40;;;;;;;;;;20996938;28;20365;-64
2022/11/15 06:40:10;;;;;;;1.67;0.90;;;;;;;;;;20996679;28;20054;-64
2022/11/15 06:50:12;;;;;;;2.25;0.57;;;;;;;;;;21012918;28;20098;-63
2022/11/15 07:00:14;;;;;;;1.75;0.80;;;;;;;;;;21012146;28;20055;-64
2022/11/15 07:10:16;;;;;;;1.33;0.57;;;;;;;;;;21011848;28;20450;-65
2022/11/15 07:20:18;;;;;;;0.82;0.40;;;;;;;;;;21010534;28;20045;-63
2022/11/15 07:30:19;;;;;;;0.70;0.50;;;;;;;;;;21009487;28;20048;-66
2022/11/15 07:40:22;;;;;;;0.82;0.45;;;;;;;;;;21008970;28;20052;-65
2022/11/15 07:50:24;;;;;;;1.38;0.52;;;;;;;;;;21007730;28;20052;-65
2022/11/15 08:00:26;;;;;;;1.27;0.60;;;;;;;;;;21007142;28;20044;-65
2022/11/15 08:10:28;;;;;;;2.30;0.50;;;;;;;;;;21007763;28;20544;-65
2022/11/15 08:20:31;;;;;;;1.25;0.50;;;;;;;;;;21006253;28;20114;-65
2022/11/15 08:30:37;;;;;;;2.47;0.90;;;;;;;;;;21004705;28;20057;-63
2022/11/15 08:40:39;;;;;;;0.57;0.40;;;;;;;;;;21004291;28;20060;-64
2022/11/15 08:50:43;;;;;;;1.85;0.95;;;;;;;;;;21004977;28;20459;-63
2022/11/15 09:00:45;;;;;;;1.42;0.60;;;;;;;;;;21003495;28;20059;-63
2022/11/15 09:10:47;;;;;;;2.58;1.30;;;;;;;;;;21000677;28;20055;-62
2022/11/15 09:20:49;;;;;;;1.67;0.43;;;;;;;;;;21001116;28;20469;-63
2022/11/15 09:30:51;;;;;;;1.05;0.65;;;;;;;;;;20999470;28;20060;-63
2022/11/15 09:41:08;;;;;;;0.82;0.47;;;;;;;;;;20998990;28;20063;-63
2022/11/15 09:51:13;;;;;;;0.60;0.22;;;;;;;;;;20997295;28;20059;-65
2022/11/15 10:01:24;;;;;;;2.70;0.50;;;;;;;;;;20997544;28;20045;-64
2022/11/15 10:11:29;;;;;;;1.55;0.30;;;;;;;;;;20996360;28;20053;-63
2022/11/15 10:21:50;;;;;;;0.63;0.25;;;;;;;;;;20996568;28;20080;-68
2022/11/15 10:31:52;;;;;;;0.98;0.30;;;;;;;;;;20995102;28;20052;-64
2022/11/15 10:41:54;;;;;;;0.88;0.50;;;;;;;;;;20994151;28;20080;-65
2022/11/15 10:51:56;;;;;;;5.47;0.35;;;;;;;;;;20995297;28;20128;-63
2022/11/15 11:01:58;;;;;;;2.33;0.30;;;;;;;;;;20994035;28;20133;-65
2022/11/15 11:12:00;;;;;;;1.08;0.47;;;;;;;;;;20994924;28;20107;-65
2022/11/15 11:22:01;;;;;;;1.40;0.60;;;;;;;;;;20994839;28;20398;-62
2022/11/15 11:32:22;;;;;;;2.08;0.45;;;;;;;;;;21003025;28;20056;-63
2022/11/15 11:42:24;;;;;;;1.75;0.80;;;;;;;;;;21009490;28;20408;-69
2022/11/15 11:52:39;;;;;;;4.47;0.50;;;;;;;;;;21006446;28;20106;-65
2022/11/15 12:02:48;;;;;;;8.02;1.42;;;;;;;;;;21006125;28;20148;-61
2022/11/15 12:13:09;;;;;;;3.57;0.83;;;;;;;;;;21004946;28;20135;-61
2022/11/15 12:23:16;;;;;;;20.25;10.48;;;;;;;;;;20986953;28;20176;-62
2022/11/15 12:33:33;;;;;;;2.00;0.70;;;;;;;;;;21003295;28;20545;-61
2022/11/15 12:43:39;;;;;;;5.25;0.85;;;;;;;;;;21001414;28;20504;-66
2022/11/15 12:53:41;;;;;;;5.63;2.78;;;;;;;;;;21002720;28;20079;-66
2022/11/15 13:04:02;;;;;;;16.02;10.13;;;;;;;;;;21002169;28;20055;-62
2022/11/15 13:14:23;;;;;;;3.17;1.00;;;;;;;;;;21000114;28;20060;-62
2022/11/15 13:24:26;;;;;;;2.55;0.70;;;;;;;;;;21000024;28;20041;-62
2022/11/15 13:34:32;;;;;;;5.40;1.35;;;;;;;;;;20999427;28;20450;-71
2022/11/15 13:44:34;;;;;;;1.45;0.50;;;;;;;;;;20997944;28;20044;-68
2022/11/15 13:54:36;;;;;;;5.82;2.58;;;;;;;;;;20995547;28;20052;-67
2022/11/15 14:04:39;;;;;;;4.43;1.55;;;;;;;;;;20996630;28;20048;-63
2022/11/15 14:14:48;;;;;;;2.78;0.57;;;;;;;;;;20996165;28;20052;-64
2022/11/15 14:25:05;;;;;;;3.92;1.35;;;;;;;;;;20996344;28;20048;-65
2022/11/15 14:35:13;;;;;;;4.00;0.80;;;;;;;;;;20996451;28;20117;-74
2022/11/15 14:45:19;;;;;;;2.73;0.70;;;;;;;;;;20995264;28;20048;-73
2022/11/15 14:55:26;;;;;;;3.33;0.73;;;;;;;;;;20994730;28;20088;-63
2022/11/15 15:05:39;;;;;;;3.08;0.60;;;;;;;;;;21066196;22;20045;-63
2022/11/15 15:15:41;;;;;;;2.63;0.40;;;;;;;;;;20839836;28;20049;-67
2022/11/15 15:25:45;;;;;;;6.13;0.73;;;;;;;;;;20842401;28;20053;-66
2022/11/15 15:35:47;;;;;;;1.45;0.52;;;;;;;;;;21098956;22;20068;-62
2022/11/15 15:45:49;;;;;;;2.20;0.85;;;;;;;;;;20836714;28;20421;-59
2022/11/15 15:55:51;;;;;;;3.67;0.98;;;;;;;;;;20838546;28;20055;-63
2022/11/15 16:05:54;;;;;;;6.50;1.00;;;;;;;;;;20838528;28;20095;-64
2022/11/15 16:16:16;;;;;;;3.78;1.25;;;;;;;;;;20932105;22;20114;-62
2022/11/15 16:26:27;;;;;;;4.82;1.10;;;;;;;;;;20671907;28;20065;-61
2022/11/15 16:36:32;;;;;;;4.63;1.00;;;;;;;;;;20673615;28;20137;-60
2022/11/15 16:46:34;;;;;;;4.97;0.90;;;;;;;;;;20673919;28;20046;-63
2022/11/15 16:56:36;;;;;;;3.58;0.70;;;;;;;;;;20671929;28;20054;-62
2022/11/15 17:17:53;;;;;;;2.00;1.00;;;;;;;;;;20859996;23;20060;-59
2022/11/15 17:27:56;;;;;;;1.92;0.93;;;;;;;;;;20831555;28;20049;-57
2022/11/15 17:37:57;;;;;;;4.10;1.35;;;;;;;;;;20832921;28;20075;-62
2022/11/15 17:47:59;;;;;;;3.03;1.27;;;;;;;;;;20832551;28;20084;-57
2022/11/15 17:58:01;;;;;;;4.13;1.17;;;;;;;;;;20830790;28;20129;-62
2022/11/15 18:08:02;;;;;;;2.03;1.15;;;;;;;;;;20839376;28;20056;-57
2022/11/15 18:29:11;;;;;;;2.33;1.35;;;;;;;;;;20926807;23;20045;-65
2022/11/15 18:39:15;;;;;;;3.78;1.77;;;;;;;;;;20913962;28;20140;-65
2022/11/15 18:49:19;;;;;;;2.05;1.25;;;;;;;;;;20912845;28;20044;-65
2022/11/15 18:59:20;;;;;;;3.30;1.40;;;;;;;;;;20912825;28;20560;-66
2022/11/15 19:09:26;;;;;;;2.47;0.82;;;;;;;;;;20912588;28;20049;-66
2022/11/15 19:19:28;;;;;;;2.55;1.50;;;;;;;;;;20912416;28;20053;-67
2022/11/15 19:29:30;;;;;;;1.65;1.00;;;;;;;;;;20912703;28;20056;-64
2022/11/15 19:39:31;;;;;;;4.05;1.48;;;;;;;;;;20912265;28;20053;-64
2022/11/15 19:49:33;;;;;;;4.85;1.95;;;;;;;;;;20915621;28;20071;-67
2022/11/15 19:59:35;;;;;;;3.33;1.73;;;;;;;;;;20925609;28;20049;-67
2022/11/15 20:09:37;;;;;;;2.92;1.75;;;;;;;;;;20924675;28;20499;-64
2022/11/15 20:19:39;;;;;;;4.13;1.95;;;;;;;;;;20923926;28;20087;-66
2022/11/15 20:29:42;;;;;;;4.45;2.38;;;;;;;;;;20924199;28;20048;-65
2022/11/15 20:39:45;;;;;;;3.85;1.88;;;;;;;;;;20922349;28;20126;-66
2022/11/15 20:49:48;;;;;;;3.08;1.30;;;;;;;;;;20921848;28;20065;-61
2022/11/15 20:59:50;;;;;;;2.03;1.55;;;;;;;;;;20919682;28;20049;-63
2022/11/15 21:20:12;;;;;;;2.22;1.23;;;;;;;;;;20919660;28;20452;-63
2022/11/15 21:30:14;;;;;;;1.58;0.95;;;;;;;;;;20918326;28;20076;-62
2022/11/15 21:40:16;;;;;;;2.50;1.20;;;;;;;;;;20900701;28;20404;-60
2022/11/15 21:50:17;;;;;;;3.08;1.80;;;;;;;;;;20917517;28;20489;-62
2022/11/15 22:10:40;;;;;;;3.05;1.50;;;;;;;;;;20916727;28;20473;-60
2022/11/15 22:20:41;;;;;;;1.98;1.48;;;;;;;;;;20914125;28;20099;-60
2022/11/15 22:30:47;;;;;;;3.53;1.75;;;;;;;;;;20914971;28;20142;-60
2022/11/15 22:40:49;;;;;;;2.17;1.60;;;;;;;;;;20913324;28;20049;-61
2022/11/15 22:50:51;;;;;;;2.13;1.08;;;;;;;;;;20913754;28;20061;-61
2022/11/15 23:00:55;;;;;;;2.22;0.88;;;;;;;;;;20913960;28;20111;-64
2022/11/15 23:42:18;;;;;;;0.88;0.47;;;;;;;;;;20673765;28;20050;-62
2022/11/15 23:52:21;;;;;;;0.98;0.60;;;;;;;;;;20739970;28;20056;-60
